Time;durP1;ratioP1;P1;durP2;ratioP2;P2;SDS_P1;SDS_P2;PMS_P1;PMS_P2;Temp;Humidity;BMP_temperature;BMP_pressure;BME280_temperature;BME280_humidity;BME280_pressure;Samples;Min_cycle;Max_cycle;Signal;HPM_P1;HPM_P2
2023/06/25 00:00:28;;;;;;;8.77;3.15;;;;;;;-142.57;51.37;115900.28;5112548;28;20043;-84
2023/06/25 00:02:54;;;;;;;7.65;3.30;;;;;;;-142.57;50.83;115900.28;5110804;28;20032;-83
2023/06/25 00:05:20;;;;;;;8.07;3.70;;;;;;;-142.57;50.81;115900.28;5109902;28;20031;-84
2023/06/25 00:07:46;;;;;;;6.10;3.15;;;;;;;-142.57;51.19;115900.28;5110577;28;20476;-83
2023/06/25 00:10:14;;;;;;;13.27;3.50;;;;;;;-142.57;51.52;115900.28;5092461;28;20028;-83
2023/06/25 00:12:43;;;;;;;8.60;3.30;;;;;;;-142.57;52.29;115900.28;5092359;28;20100;-81
2023/06/25 00:15:10;;;;;;;6.63;3.30;;;;;;;-142.57;52.72;115900.28;5109031;28;20040;-84
2023/06/25 00:17:37;;;;;;;10.57;3.15;;;;;;;-142.57;53.21;115900.28;5110016;28;20024;-83
2023/06/25 00:20:03;;;;;;;8.15;3.60;;;;;;;-142.57;53.26;115900.28;5113057;28;20106;-84
2023/06/25 00:22:28;;;;;;;9.57;3.28;;;;;;;-142.57;53.41;115900.28;5112129;28;20066;-84
2023/06/25 00:24:54;;;;;;;7.38;3.58;;;;;;;-142.57;54.04;115900.28;5112346;28;20040;-82
2023/06/25 00:27:20;;;;;;;8.85;3.45;;;;;;;-142.57;54.82;115900.28;5113313;28;20027;-83
2023/06/25 00:29:45;;;;;;;5.25;2.50;;;;;;;-142.57;54.42;115900.28;5112306;28;20024;-82
2023/06/25 00:32:17;;;;;;;4.60;2.50;;;;;;;-142.57;53.99;115900.28;5110650;28;20036;-83
2023/06/25 00:34:42;;;;;;;11.67;2.70;;;;;;;-142.57;54.47;115900.28;5110372;28;20060;-84
2023/06/25 00:37:16;;;;;;;7.93;2.40;;;;;;;-142.57;55.93;115900.28;5084917;28;20119;-83
2023/06/25 00:39:43;;;;;;;10.93;2.53;;;;;;;-142.57;55.69;115900.28;5099325;28;20077;-83
2023/06/25 00:42:09;;;;;;;4.40;2.30;;;;;;;-142.57;55.87;115900.28;5094965;28;20027;-84
2023/06/25 00:44:40;;;;;;;6.93;2.55;;;;;;;-142.57;56.16;115900.28;5094357;28;20492;-85
2023/06/25 00:47:12;;;;;;;6.75;2.65;;;;;;;-142.57;56.33;115900.28;5095470;28;20036;-84
2023/06/25 00:49:45;;;;;;;5.55;2.58;;;;;;;-142.57;56.17;115900.28;5095092;28;20032;-83
2023/06/25 00:52:14;;;;;;;4.30;2.50;;;;;;;-142.57;57.25;115900.28;5093683;28;20059;-83
2023/06/25 00:54:42;;;;;;;12.05;2.70;;;;;;;-142.57;56.40;115900.28;5095532;28;20118;-84
2023/06/25 00:57:09;;;;;;;7.93;2.92;;;;;;;-142.57;57.32;115900.28;5094029;28;20035;-83
2023/06/25 00:59:39;;;;;;;8.90;2.75;;;;;;;-142.57;57.86;115900.28;5095295;28;20382;-83
2023/06/25 01:02:46;;;;;;;9.18;2.53;;;;;;;-142.57;58.43;115900.28;5094253;28;20488;-86
2023/06/25 01:05:30;;;;;;;8.93;2.97;;;;;;;-142.57;58.32;115900.28;5095988;28;20132;-83
2023/06/25 01:07:59;;;;;;;9.30;2.97;;;;;;;-142.57;59.21;115900.28;5095395;28;20089;-84
2023/06/25 01:10:25;;;;;;;8.40;3.13;;;;;;;-142.57;59.65;115900.28;5095132;28;20040;-84
2023/06/25 01:12:52;;;;;;;5.32;2.92;;;;;;;-142.57;60.44;115900.28;5095040;28;20032;-83
2023/06/25 01:15:18;;;;;;;8.57;3.30;;;;;;;-142.57;61.49;115900.28;5093728;28;20469;-82
2023/06/25 01:17:47;;;;;;;6.57;2.65;;;;;;;-142.57;61.83;115900.28;5095194;28;20100;-83
2023/06/25 01:20:13;;;;;;;9.55;2.80;;;;;;;-142.57;62.16;115900.28;5094054;28;20040;-84
2023/06/25 01:22:42;;;;;;;4.28;2.40;;;;;;;-142.57;62.09;115900.28;5094187;28;20484;-84
2023/06/25 01:25:09;;;;;;;6.78;2.95;;;;;;;-142.57;62.91;115900.28;5093279;28;20446;-84
2023/06/25 01:30:20;;;;;;;4.45;2.70;;;;;;;-142.57;62.99;115900.28;5131599;27;20474;-84
2023/06/25 01:32:46;;;;;;;8.32;3.20;;;;;;;-142.57;64.08;115900.28;5110948;28;20088;-84
2023/06/25 01:35:13;;;;;;;5.55;2.70;;;;;;;-142.57;64.60;115900.28;5110484;28;20042;-83
2023/06/25 01:37:39;;;;;;;8.05;3.20;;;;;;;-142.57;64.93;115900.28;5109541;28;20030;-83
2023/06/25 01:40:09;;;;;;;8.35;3.13;;;;;;;-142.57;64.29;115900.28;5109128;28;20039;-86
2023/06/25 01:42:35;;;;;;;6.13;3.22;;;;;;;-142.57;63.49;115900.28;5110960;28;20032;-86
2023/06/25 01:45:01;;;;;;;7.35;2.92;;;;;;;-142.57;63.07;115900.28;5110682;28;20538;-83
2023/06/25 01:47:27;;;;;;;7.00;2.85;;;;;;;-142.57;63.14;115900.28;5110976;28;20042;-83
2023/06/25 01:49:53;;;;;;;7.25;3.13;;;;;;;-142.57;63.53;115900.28;5109615;28;20035;-86
2023/06/25 01:52:19;;;;;;;6.43;3.20;;;;;;;-142.57;63.45;115900.28;5111479;28;20039;-84
2023/06/25 01:54:46;;;;;;;8.15;3.20;;;;;;;-142.57;63.72;115900.28;5109300;28;20032;-83
2023/06/25 01:57:12;;;;;;;8.30;2.70;;;;;;;-142.57;64.21;115900.28;5110431;28;20040;-86
2023/06/25 01:59:37;;;;;;;5.25;2.13;;;;;;;-142.57;63.93;115900.28;5109617;28;20036;-84
2023/06/25 02:02:03;;;;;;;7.75;2.30;;;;;;;-142.57;63.83;115900.28;5109287;28;20040;-86
2023/06/25 02:04:30;;;;;;;5.38;2.67;;;;;;;-142.57;65.26;115900.28;5110442;28;20369;-86
2023/06/25 02:06:56;;;;;;;5.72;2.10;;;;;;;-142.57;66.00;115900.28;5109417;28;20043;-86
2023/06/25 02:09:22;;;;;;;5.72;1.90;;;;;;;-142.57;65.58;115900.28;5110442;28;20400;-84
2023/06/25 02:11:48;;;;;;;5.22;2.10;;;;;;;-142.57;65.30;115900.28;5108991;28;20032;-83
2023/06/25 02:14:13;;;;;;;4.97;2.20;;;;;;;-142.57;65.00;115900.28;5109914;28;20389;-84
2023/06/25 02:16:39;;;;;;;6.03;1.95;;;;;;;-142.57;65.17;115900.28;5109437;28;20062;-83
2023/06/25 02:19:04;;;;;;;2.80;1.90;;;;;;;-142.57;64.89;115900.28;5108551;28;20055;-85
2023/06/25 02:21:30;;;;;;;5.10;2.20;;;;;;;-142.57;65.73;115900.28;5110258;28;20038;-83
2023/06/25 02:23:55;;;;;;;4.95;2.42;;;;;;;-142.57;66.03;115900.28;5108434;28;20020;-84
2023/06/25 02:26:21;;;;;;;3.60;2.20;;;;;;;-142.57;65.71;115900.28;5109657;28;20112;-84
2023/06/25 02:28:47;;;;;;;4.43;2.35;;;;;;;-142.57;64.85;115900.28;5108097;28;20036;-83
2023/06/25 02:31:12;;;;;;;5.82;2.60;;;;;;;-142.57;64.52;115900.28;5109551;28;20032;-84
2023/06/25 02:33:41;;;;;;;6.25;2.40;;;;;;;-142.57;64.78;115900.28;5108323;28;20115;-83
2023/06/25 02:36:06;;;;;;;4.63;2.20;;;;;;;-142.57;64.45;115900.28;5108299;28;20046;-85
2023/06/25 02:38:32;;;;;;;6.32;2.33;;;;;;;-142.57;65.10;115900.28;5109793;28;20039;-83
2023/06/25 02:40:58;;;;;;;6.95;2.70;;;;;;;-142.57;64.37;115900.28;5099841;28;20028;-83
2023/06/25 02:43:24;;;;;;;7.32;3.00;;;;;;;-142.57;64.34;115900.28;5094766;28;20408;-84
2023/06/25 02:45:51;;;;;;;5.85;2.47;;;;;;;-142.57;64.10;115900.28;5094245;28;20024;-82
2023/06/25 02:48:17;;;;;;;3.88;2.65;;;;;;;-142.57;64.79;115900.28;5094458;28;20500;-84
2023/06/25 02:50:43;;;;;;;4.82;2.15;;;;;;;-142.57;65.33;115900.28;5095559;28;20036;-83
2023/06/25 02:53:08;;;;;;;4.25;2.38;;;;;;;-142.57;65.63;115900.28;5095128;28;20065;-84
2023/06/25 02:55:34;;;;;;;4.03;2.50;;;;;;;-142.57;65.42;115900.28;5095578;28;20043;-84
2023/06/25 02:58:00;;;;;;;4.63;2.00;;;;;;;-142.57;65.47;115900.28;5094002;28;20054;-83
2023/06/25 03:00:25;;;;;;;4.38;2.20;;;;;;;-142.57;65.96;115900.28;5095101;28;20385;-83
2023/06/25 03:02:51;;;;;;;5.68;2.30;;;;;;;-142.57;66.54;115900.28;5094704;28;20036;-83
2023/06/25 03:05:16;;;;;;;4.30;2.33;;;;;;;-142.57;66.64;115900.28;5094521;28;20024;-82
2023/06/25 03:07:53;;;;;;;5.93;2.20;;;;;;;-142.57;66.68;115900.28;5093952;28;20032;-83
2023/06/25 03:10:25;;;;;;;6.20;2.30;;;;;;;-142.57;65.80;115900.28;5094220;28;20398;-83
2023/06/25 03:12:52;;;;;;;4.45;2.20;;;;;;;-142.57;65.00;115900.28;5077536;28;20036;-82
2023/06/25 03:15:18;;;;;;;5.00;2.22;;;;;;;-142.57;63.34;115900.28;5095900;28;20070;-82
2023/06/25 03:17:44;;;;;;;3.25;2.10;;;;;;;-142.57;62.03;115900.28;5095374;28;20042;-83
2023/06/25 03:20:11;;;;;;;6.85;2.58;;;;;;;-142.57;63.06;115900.28;5094283;28;20040;-83
2023/06/25 03:22:37;;;;;;;4.93;2.30;;;;;;;-142.57;63.75;115900.28;5077283;28;20503;-81
2023/06/25 03:25:05;;;;;;;4.30;2.25;;;;;;;-142.57;65.37;115900.28;5094571;28;20538;-82
2023/06/25 03:27:33;;;;;;;4.60;2.45;;;;;;;-142.57;65.08;115900.28;5094220;28;20078;-82
2023/06/25 03:29:59;;;;;;;4.45;2.30;;;;;;;-142.57;65.69;115900.28;5093374;28;20062;-82
2023/06/25 03:32:25;;;;;;;4.75;2.50;;;;;;;-142.57;65.81;115900.28;5093679;28;20036;-82
2023/06/25 03:34:52;;;;;;;8.02;2.78;;;;;;;-142.57;66.10;115900.28;5095018;28;20028;-83
2023/06/25 03:37:18;;;;;;;5.80;2.53;;;;;;;-142.57;66.27;115900.28;5093876;28;20123;-84
2023/06/25 03:39:44;;;;;;;5.95;2.60;;;;;;;-142.57;66.83;115900.28;5094013;28;20493;-84
2023/06/25 03:42:10;;;;;;;5.70;2.25;;;;;;;-142.57;66.83;115900.28;5094847;28;20124;-83
2023/06/25 03:44:36;;;;;;;4.05;1.77;;;;;;;-142.57;67.00;115900.28;5093305;28;20033;-85
2023/06/25 03:47:02;;;;;;;7.05;2.25;;;;;;;-142.57;66.28;115900.28;5093443;28;20065;-85
2023/06/25 03:49:28;;;;;;;5.25;2.40;;;;;;;-142.57;66.60;115900.28;5093425;28;20036;-84
2023/06/25 03:51:54;;;;;;;4.50;2.33;;;;;;;-142.57;66.60;115900.28;5075640;28;20381;-84
2023/06/25 03:54:19;;;;;;;6.07;2.28;;;;;;;-142.57;66.62;115900.28;5093228;28;20042;-83
2023/06/25 03:56:45;;;;;;;3.90;2.20;;;;;;;-142.57;67.67;115900.28;5093324;28;20028;-82
2023/06/25 03:59:11;;;;;;;4.80;2.13;;;;;;;-142.57;68.39;115900.28;5092863;28;20109;-84
2023/06/25 04:01:37;;;;;;;6.13;2.88;;;;;;;-142.57;68.37;115900.28;5093220;28;20036;-83
2023/06/25 04:04:03;;;;;;;9.23;2.70;;;;;;;-142.57;69.17;115900.28;5076387;28;20028;-80
2023/06/25 04:06:29;;;;;;;6.25;2.42;;;;;;;-142.57;68.94;115900.28;5092801;28;20134;-84
2023/06/25 04:08:56;;;;;;;7.35;2.45;;;;;;;-142.57;69.33;115900.28;5092521;28;20040;-84
2023/06/25 04:11:21;;;;;;;9.15;2.40;;;;;;;-142.57;69.51;115900.28;5093431;28;20042;-83
2023/06/25 04:13:48;;;;;;;5.25;1.90;;;;;;;-142.57;69.23;115900.28;5094131;28;20036;-83
2023/06/25 04:16:14;;;;;;;2.92;1.90;;;;;;;-142.57;69.82;115900.28;5093461;28;20127;-81
2023/06/25 04:18:43;;;;;;;2.60;1.80;;;;;;;-142.57;69.32;115900.28;5093358;28;20071;-83
2023/06/25 04:21:08;;;;;;;6.93;2.33;;;;;;;-142.57;68.87;115900.28;5094636;28;20140;-83
2023/06/25 04:23:34;;;;;;;5.85;2.10;;;;;;;-142.57;68.64;115900.28;5092915;28;20107;-84
2023/06/25 04:25:59;;;;;;;5.80;1.80;;;;;;;-142.57;68.12;115900.28;5093613;28;20032;-83
2023/06/25 04:28:25;;;;;;;4.45;2.03;;;;;;;-142.57;68.41;115900.28;5092689;28;20055;-82
2023/06/25 04:30:51;;;;;;;5.43;2.22;;;;;;;-142.57;68.41;115900.28;5092790;28;20130;-85
2023/06/25 04:33:18;;;;;;;3.97;2.17;;;;;;;-142.57;67.33;115900.28;5093974;28;20029;-85
2023/06/25 04:35:44;;;;;;;4.28;1.98;;;;;;;-142.57;67.53;115900.28;5092191;28;20477;-83
2023/06/25 04:38:10;;;;;;;7.95;2.22;;;;;;;-142.57;66.24;115900.28;5076492;28;20039;-84
2023/06/25 04:40:35;;;;;;;14.70;2.20;;;;;;;-142.57;65.62;115900.28;5093643;28;20034;-86
2023/06/25 04:43:01;;;;;;;7.45;1.88;;;;;;;-142.57;65.57;115900.28;5093284;28;20475;-87
2023/06/25 04:45:26;;;;;;;9.80;2.88;;;;;;;-142.57;64.91;115900.28;5094568;28;20058;-86
2023/06/25 04:47:52;;;;;;;7.05;2.08;;;;;;;-142.57;64.79;115900.28;5092593;28;20040;-84
2023/06/25 04:50:17;;;;;;;4.63;2.10;;;;;;;-142.57;65.24;115900.28;5092467;28;20067;-86
2023/06/25 04:52:43;;;;;;;3.30;1.85;;;;;;;-142.57;65.77;115900.28;5095479;28;20070;-77
2023/06/25 04:55:08;;;;;;;2.85;1.63;;;;;;;-142.57;65.68;115900.28;5102710;28;20028;-78
2023/06/25 04:57:34;;;;;;;6.72;1.75;;;;;;;-142.57;65.02;115900.28;5114571;28;20040;-76
2023/06/25 05:00:01;;;;;;;5.78;1.73;;;;;;;-142.57;65.44;115900.28;5107218;28;20051;-78
2023/06/25 05:02:26;;;;;;;5.85;1.88;;;;;;;-142.57;65.00;115900.28;5109565;28;20032;-78
2023/06/25 05:04:52;;;;;;;3.30;1.60;;;;;;;-142.57;64.42;115900.28;5109189;28;20016;-77
2023/06/25 05:07:18;;;;;;;5.60;1.95;;;;;;;-142.57;63.95;115900.28;5110164;28;20047;-78
2023/06/25 05:09:43;;;;;;;2.28;1.45;;;;;;;-142.57;63.22;115900.28;5108912;28;20106;-78
2023/06/25 05:12:09;;;;;;;2.30;1.50;;;;;;;-142.57;63.18;115900.28;5106657;28;20032;-78
2023/06/25 05:14:36;;;;;;;8.82;1.80;;;;;;;-142.57;62.67;115900.28;5099032;28;20449;-78
2023/06/25 05:17:02;;;;;;;4.45;1.67;;;;;;;-142.57;61.96;115900.28;5099656;28;20036;-82
2023/06/25 05:19:28;;;;;;;6.93;1.65;;;;;;;-142.57;61.74;115900.28;5098454;28;20077;-80
2023/06/25 05:21:54;;;;;;;4.03;2.15;;;;;;;-142.57;61.28;115900.28;5095562;28;20062;-80
2023/06/25 05:24:19;;;;;;;3.97;1.60;;;;;;;-142.57;59.25;115900.28;5094801;28;20461;-82
2023/06/25 05:26:45;;;;;;;4.00;1.90;;;;;;;-142.57;61.76;115900.28;5096365;28;20461;-84
2023/06/25 05:29:10;;;;;;;4.80;2.28;;;;;;;-142.57;62.66;115900.28;5075969;28;20436;-81
2023/06/25 05:31:36;;;;;;;4.40;2.13;;;;;;;-142.57;64.72;115900.28;5094212;28;20540;-82
2023/06/25 05:34:04;;;;;;;4.07;2.35;;;;;;;-142.57;62.43;115900.28;5094694;28;20032;-83
2023/06/25 05:36:29;;;;;;;6.82;2.70;;;;;;;-142.57;62.12;115900.28;5094784;28;20064;-82
2023/06/25 05:38:55;;;;;;;4.47;2.33;;;;;;;-142.57;61.43;115900.28;5095655;28;20048;-80
2023/06/25 05:41:21;;;;;;;9.05;3.22;;;;;;;-142.57;61.55;115900.28;5095616;28;20046;-80
2023/06/25 05:43:46;;;;;;;7.45;2.60;;;;;;;-142.57;62.71;115900.28;5094185;28;20153;-82
2023/06/25 05:46:13;;;;;;;10.57;3.17;;;;;;;-142.57;61.45;115900.28;5094134;28;20075;-87
2023/06/25 05:48:43;;;;;;;6.28;3.03;;;;;;;-142.57;61.84;115900.28;5097850;28;20110;-87
2023/06/25 05:51:08;;;;;;;6.55;3.35;;;;;;;-142.57;60.78;115900.28;5081038;28;20040;-84
2023/06/25 05:53:42;;;;;;;13.70;2.53;;;;;;;-142.57;59.39;115900.28;5096387;28;20107;-79
2023/06/25 05:56:08;;;;;;;13.88;3.00;;;;;;;-142.57;59.24;115900.28;5097195;28;20028;-82
2023/06/25 05:58:34;;;;;;;14.50;4.05;;;;;;;-142.57;59.15;115900.28;5094111;28;20040;-85
2023/06/25 06:01:00;;;;;;;11.02;3.35;;;;;;;-142.57;58.67;115900.28;5092865;28;20039;-88
2023/06/25 06:03:25;;;;;;;9.07;3.42;;;;;;;-142.57;58.07;115900.28;5092854;28;20036;-83
2023/06/25 06:05:52;;;;;;;15.40;2.90;;;;;;;-142.57;56.87;115900.28;5093273;28;20466;-85
2023/06/25 06:08:18;;;;;;;4.68;2.78;;;;;;;-142.57;55.84;115900.28;5092903;28;20032;-84
2023/06/25 06:11:08;;;;;;;;;;;;;;;;;;;;;
2023/06/25 06:13:54;;;;;;;4.43;2.70;;;;;;;-142.57;53.97;115900.28;5097387;28;20036;-82
2023/06/25 06:16:20;;;;;;;7.30;2.92;;;;;;;-142.57;52.05;115900.28;5104323;28;20038;-80
2023/06/25 06:18:54;;;;;;;6.15;2.95;;;;;;;-142.57;52.78;115900.28;5105669;28;20038;-79
2023/06/25 06:21:22;;;;;;;16.33;2.80;;;;;;;-142.57;52.68;115900.28;5098856;28;20101;-81
2023/06/25 06:23:48;;;;;;;5.68;2.90;;;;;;;-142.57;51.72;115900.28;5102100;28;20043;-84
2023/06/25 06:26:17;;;;;;;7.55;3.42;;;;;;;-142.57;51.51;115900.28;5096091;28;20445;-83
2023/06/25 06:28:43;;;;;;;7.63;2.92;;;;;;;-142.57;50.14;115900.28;5097410;28;20032;-85
2023/06/25 06:31:08;;;;;;;8.27;2.92;;;;;;;-142.57;47.66;115900.28;5097417;28;20040;-80
2023/06/25 06:33:34;;;;;;;8.55;2.83;;;;;;;-142.57;47.08;115900.28;5091936;28;20033;-83
2023/06/25 06:36:00;;;;;;;8.27;3.08;;;;;;;-142.57;47.85;115900.28;5076252;28;20032;-79
2023/06/25 06:38:32;;;;;;;7.45;3.00;;;;;;;-142.57;45.92;115900.28;5086827;28;20204;-89
2023/06/25 06:41:01;;;;;;;5.43;2.85;;;;;;;-142.57;42.48;115900.28;5088747;28;20547;-85
2023/06/25 06:43:31;;;;;;;6.20;2.80;;;;;;;-142.57;41.78;115900.28;5094462;28;20028;-87
2023/06/25 06:46:00;;;;;;;8.45;2.80;;;;;;;-142.57;39.89;115900.28;5078144;28;20052;-91
2023/06/25 06:48:29;;;;;;;10.52;2.70;;;;;;;-142.57;40.03;115900.28;5083206;28;20452;-79
2023/06/25 06:50:55;;;;;;;4.97;1.95;;;;;;;-142.57;37.40;115900.28;5077794;28;20033;-80
2023/06/25 06:53:20;;;;;;;5.05;2.38;;;;;;;-142.57;38.02;115900.28;5078014;28;20099;-80
2023/06/25 06:55:46;;;;;;;4.80;2.30;;;;;;;-142.57;37.35;115900.28;5079589;28;20029;-83
2023/06/25 06:58:11;;;;;;;15.02;2.30;;;;;;;-142.57;37.82;115900.28;5079547;28;20128;-82
2023/06/25 07:00:37;;;;;;;7.85;2.33;;;;;;;-142.57;38.19;115900.28;5078890;28;20067;-86
2023/06/25 07:03:02;;;;;;;4.43;2.42;;;;;;;-142.57;37.79;115900.28;5079370;28;20044;-83
2023/06/25 07:05:28;;;;;;;19.02;2.33;;;;;;;-142.57;36.19;115900.28;5079605;28;20029;-85
2023/06/25 07:07:53;;;;;;;3.67;1.60;;;;;;;-142.57;38.32;115900.28;5079259;28;20036;-85
2023/06/25 07:10:19;;;;;;;14.57;2.13;;;;;;;-142.57;38.75;115900.28;5083195;28;20162;-84
2023/06/25 07:12:44;;;;;;;6.90;2.55;;;;;;;-142.57;37.38;115900.28;5080616;28;20028;-85
2023/06/25 07:15:10;;;;;;;3.85;2.00;;;;;;;-142.57;36.88;115900.28;5077622;28;20032;-85
2023/06/25 07:17:35;;;;;;;6.35;2.00;;;;;;;-142.57;36.97;115900.28;5079560;28;20088;-89
2023/06/25 07:20:01;;;;;;;3.40;1.98;;;;;;;-142.57;35.82;115900.28;5084813;28;20040;-82
2023/06/25 07:22:26;;;;;;;3.95;1.35;;;;;;;-142.57;35.11;115900.28;5090916;28;20040;-82
2023/06/25 07:24:52;;;;;;;5.03;1.85;;;;;;;-142.57;37.66;115900.28;5081547;28;20033;-85
2023/06/25 07:27:18;;;;;;;3.28;1.73;;;;;;;-142.57;38.76;115900.28;5078565;28;20036;-85
2023/06/25 07:29:46;;;;;;;6.63;1.80;;;;;;;-142.57;38.00;115900.28;5063002;28;20049;-84
2023/06/25 07:32:12;;;;;;;11.25;1.90;;;;;;;-142.57;36.17;115900.28;5083070;28;20029;-87
2023/06/25 07:34:37;;;;;;;8.48;2.03;;;;;;;-142.57;35.99;115900.28;5081155;28;20071;-87
2023/06/25 07:37:07;;;;;;;5.47;1.70;;;;;;;-142.57;36.87;115900.28;5077744;28;20048;-86
2023/06/25 07:39:36;;;;;;;6.10;1.75;;;;;;;-142.57;36.25;115900.28;5077949;28;20068;-90
2023/06/25 07:42:01;;;;;;;7.30;2.20;;;;;;;-142.57;36.40;115900.28;5075833;28;20027;-87
2023/06/25 07:44:27;;;;;;;3.08;1.77;;;;;;;-142.57;36.59;115900.28;5079012;28;20060;-88
2023/06/25 07:46:52;;;;;;;10.27;1.75;;;;;;;-142.57;35.39;115900.28;5059989;28;20036;-85
2023/06/25 07:49:18;;;;;;;3.58;1.55;;;;;;;-142.57;35.22;115900.28;5077837;28;20040;-87
2023/06/25 07:51:45;;;;;;;3.05;1.65;;;;;;;-142.57;35.15;115900.28;5079020;28;20041;-85
2023/06/25 07:54:12;;;;;;;7.15;2.03;;;;;;;-142.57;35.88;115900.28;5078824;28;20155;-85
2023/06/25 07:56:39;;;;;;;2.88;1.77;;;;;;;-142.57;35.15;115900.28;5061056;28;20067;-87
2023/06/25 07:59:05;;;;;;;3.80;1.65;;;;;;;-142.57;34.98;115900.28;5073351;28;20040;-86
2023/06/25 08:01:31;;;;;;;3.67;1.60;;;;;;;-142.57;34.76;115900.28;5077810;28;20478;-85
2023/06/25 08:04:02;;;;;;;2.13;1.38;;;;;;;-142.57;35.92;115900.28;5078331;28;20477;-88
2023/06/25 08:06:28;;;;;;;;;;;;;;;-142.57;34.65;115900.28;5064656;28;20056;-86
2023/06/25 08:08:56;;;;;;;7.25;1.80;;;;;;;-142.57;35.35;115900.28;5078777;28;19923;-83
2023/06/25 08:11:24;;;;;;;5.03;1.77;;;;;;;-142.57;36.35;115900.28;5076353;28;20141;-84
2023/06/25 08:13:50;;;;;;;7.00;1.52;;;;;;;-142.57;37.50;115900.28;5079351;28;20041;-82
2023/06/25 08:16:19;;;;;;;7.50;1.95;;;;;;;-142.57;37.87;115900.28;5081382;28;20032;-86
2023/06/25 08:18:44;;;;;;;4.72;1.70;;;;;;;-142.57;36.70;115900.28;5081660;28;20032;-88
2023/06/25 08:21:10;;;;;;;3.95;1.60;;;;;;;-142.57;35.91;115900.28;5079747;28;20040;-88
2023/06/25 08:23:36;;;;;;;3.15;1.58;;;;;;;-142.57;34.04;115900.28;5063114;28;20029;-84
2023/06/25 08:26:02;;;;;;;8.07;1.90;;;;;;;-142.57;36.30;115900.28;5077200;28;20040;-81
2023/06/25 08:28:28;;;;;;;4.65;1.70;;;;;;;-142.57;37.84;115900.28;5076765;28;20040;-81
2023/06/25 08:30:53;;;;;;;3.28;1.67;;;;;;;-142.57;36.08;115900.28;5077219;28;20035;-88
2023/06/25 08:33:19;;;;;;;3.70;1.70;;;;;;;-142.57;36.11;115900.28;5078020;28;20055;-86
2023/06/25 08:35:44;;;;;;;5.47;1.42;;;;;;;-142.57;35.18;115900.28;5074238;28;20067;-85
2023/06/25 08:38:10;;;;;;;2.83;1.80;;;;;;;-142.57;34.80;115900.28;5076604;28;20094;-82
2023/06/25 08:40:40;;;;;;;3.90;2.17;;;;;;;-142.57;35.36;115900.28;5076182;28;20043;-87
2023/06/25 08:43:05;;;;;;;8.50;2.22;;;;;;;-142.57;34.84;115900.28;5076409;28;20029;-87
2023/06/25 08:45:31;;;;;;;3.88;1.80;;;;;;;-142.57;34.73;115900.28;5075095;28;20086;-87
2023/06/25 08:48:02;;;;;;;8.35;2.10;;;;;;;-142.57;34.60;115900.28;5075160;28;20044;-88
2023/06/25 08:50:29;;;;;;;5.07;2.10;;;;;;;-142.57;35.23;115900.28;5057818;28;20090;-87
2023/06/25 08:52:55;;;;;;;5.00;2.22;;;;;;;-142.57;33.95;115900.28;5073523;28;20032;-88
2023/06/25 08:55:24;;;;;;;3.90;1.90;;;;;;;-142.57;34.51;115900.28;5075221;28;20104;-85
2023/06/25 08:57:49;;;;;;;5.07;2.35;;;;;;;-142.57;34.30;115900.28;5076729;28;20032;-86
2023/06/25 09:00:16;;;;;;;6.22;2.30;;;;;;;-142.57;33.76;115900.28;5073679;28;20445;-86
2023/06/25 09:02:42;;;;;;;5.13;2.20;;;;;;;-142.57;33.93;115900.28;5077091;28;20033;-88
2023/06/25 09:05:10;;;;;;;5.10;2.10;;;;;;;-142.57;33.77;115900.28;5058418;28;20124;-85
2023/06/25 09:07:46;;;;;;;4.70;1.95;;;;;;;-142.57;34.75;115900.28;5079747;28;20043;-84
2023/06/25 09:10:12;;;;;;;3.42;1.98;;;;;;;-142.57;33.38;115900.28;5077845;28;20486;-82
2023/06/25 09:12:38;;;;;;;3.35;1.80;;;;;;;-142.57;32.26;115900.28;5073748;28;20037;-86
2023/06/25 09:15:06;;;;;;;12.05;1.80;;;;;;;-142.57;32.07;115900.28;5076922;28;20045;-83
2023/06/25 09:17:31;;;;;;;3.78;2.03;;;;;;;-142.57;32.60;115900.28;5082209;28;20446;-81
2023/06/25 09:20:05;;;;;;;5.15;1.85;;;;;;;-142.57;32.58;115900.28;5046791;28;20040;-83
2023/06/25 09:22:31;;;;;;;3.42;1.83;;;;;;;-142.57;31.56;115900.28;5072440;28;20020;-82
2023/06/25 09:24:56;;;;;;;3.13;1.70;;;;;;;-142.57;32.60;115900.28;5070467;28;20032;-83
2023/06/25 09:27:22;;;;;;;3.97;1.75;;;;;;;-142.57;32.09;115900.28;5074186;28;20032;-85
2023/06/25 09:29:48;;;;;;;10.38;1.85;;;;;;;-142.57;31.43;115900.28;5071565;28;20501;-87
2023/06/25 09:32:17;;;;;;;4.28;1.67;;;;;;;-142.57;31.81;115900.28;5074394;28;20037;-85
2023/06/25 09:34:46;;;;;;;3.13;1.73;;;;;;;-142.57;31.75;115900.28;5072845;28;20028;-88
2023/06/25 09:37:11;;;;;;;3.50;1.65;;;;;;;-142.57;31.42;115900.28;5073947;28;20033;-87
2023/06/25 09:39:37;;;;;;;2.05;1.52;;;;;;;-142.57;31.44;115900.28;5074804;28;20043;-86
2023/06/25 09:42:04;;;;;;;1.92;1.65;;;;;;;-142.57;31.63;115900.28;5073725;28;20043;-86
2023/06/25 09:44:31;;;;;;;2.45;1.80;;;;;;;-142.57;32.04;115900.28;5071875;28;20033;-83
2023/06/25 09:47:07;;;;;;;4.93;1.92;;;;;;;-142.57;31.60;115900.28;5072217;28;20037;-86
2023/06/25 09:49:33;;;;;;;6.45;2.13;;;;;;;-142.57;30.91;115900.28;5074471;28;20032;-82
2023/06/25 09:52:09;;;;;;;3.05;1.50;;;;;;;-142.57;31.87;115900.28;5077431;28;20052;-88
2023/06/25 09:54:41;;;;;;;3.22;1.77;;;;;;;-142.57;31.00;115900.28;5081099;28;20043;-85
2023/06/25 09:57:09;;;;;;;2.92;1.80;;;;;;;-142.57;30.64;115900.28;5078546;28;20385;-86
2023/06/25 09:59:36;;;;;;;5.53;2.05;;;;;;;-142.57;31.77;115900.28;5076129;28;20090;-83
2023/06/25 10:02:05;;;;;;;3.88;1.80;;;;;;;-142.57;30.68;115900.28;5078102;28;20078;-84
2023/06/25 10:04:32;;;;;;;4.35;1.80;;;;;;;-142.57;31.14;115900.28;5077684;28;20036;-86
2023/06/25 10:06:58;;;;;;;6.45;1.98;;;;;;;-142.57;31.66;115900.28;5084308;28;20039;-85
2023/06/25 10:09:24;;;;;;;3.95;2.30;;;;;;;-142.57;31.85;115900.28;5083639;28;20037;-89
2023/06/25 10:11:55;;;;;;;7.25;2.22;;;;;;;-142.57;31.83;115900.28;5064270;28;20100;-88
2023/06/25 10:14:21;;;;;;;5.13;2.10;;;;;;;-142.57;31.97;115900.28;5081607;28;20374;-88
2023/06/25 10:16:55;;;;;;;2.78;2.10;;;;;;;-142.57;31.56;115900.28;5076841;28;20035;-80
2023/06/25 10:19:22;;;;;;;2.95;1.88;;;;;;;-142.57;31.57;115900.28;5076557;28;20032;-85
2023/06/25 10:22:05;;;;;;;9.38;2.17;;;;;;;-142.57;32.09;115900.28;5077165;28;20116;-83
2023/06/25 10:24:41;;;;;;;4.80;2.00;;;;;;;-142.57;31.72;115900.28;5087533;28;20034;-85
2023/06/25 10:27:18;;;;;;;5.18;2.42;;;;;;;-142.57;31.48;115900.28;5095406;28;20040;-83
2023/06/25 10:29:44;;;;;;;4.00;2.38;;;;;;;-142.57;31.66;115900.28;5095954;28;20051;-81
2023/06/25 10:32:12;;;;;;;4.40;1.80;;;;;;;-142.57;31.63;115900.28;5096277;28;20032;-84
2023/06/25 10:34:38;;;;;;;3.67;2.33;;;;;;;-142.57;31.27;115900.28;5096669;28;20465;-84
2023/06/25 10:37:05;;;;;;;2.63;2.00;;;;;;;-142.57;31.62;115900.28;5096621;28;20102;-84
2023/06/25 10:39:38;;;;;;;2.60;2.22;;;;;;;-142.57;31.62;115900.28;5096251;28;20054;-83
2023/06/25 10:42:04;;;;;;;4.03;1.90;;;;;;;-142.57;31.16;115900.28;5095380;28;20511;-83
2023/06/25 10:44:29;;;;;;;6.38;2.47;;;;;;;-142.57;31.17;115900.28;5096837;28;20028;-83
2023/06/25 10:47:04;;;;;;;3.33;1.90;;;;;;;-142.57;30.42;115900.28;5095901;28;20116;-85
2023/06/25 10:49:29;;;;;;;9.88;2.03;;;;;;;-142.57;30.33;115900.28;5096536;28;20063;-84
2023/06/25 10:51:57;;;;;;;5.35;1.85;;;;;;;-142.57;29.63;115900.28;5096612;28;20107;-86
2023/06/25 10:54:23;;;;;;;2.53;1.90;;;;;;;-142.57;29.35;115900.28;5095356;28;20492;-81
2023/06/25 10:56:49;;;;;;;3.38;1.90;;;;;;;-142.57;29.85;115900.28;5097098;28;20107;-83
2023/06/25 10:59:21;;;;;;;5.10;1.92;;;;;;;-142.57;29.53;115900.28;5096610;28;20097;-83
2023/06/25 11:01:50;;;;;;;8.48;2.13;;;;;;;-142.57;28.76;115900.28;5097068;28;20047;-84
2023/06/25 11:04:16;;;;;;;2.55;1.90;;;;;;;-142.57;28.96;115900.28;5097517;28;20040;-84
2023/06/25 11:06:42;;;;;;;3.78;1.60;;;;;;;-142.57;29.20;115900.28;5095683;28;20039;-83
2023/06/25 11:09:07;;;;;;;4.32;2.17;;;;;;;-142.57;29.16;115900.28;5097110;28;20169;-84
2023/06/25 11:11:33;;;;;;;2.58;1.75;;;;;;;-142.57;29.17;115900.28;5095820;28;20400;-84